createdAt,value
2023-12-01T00:23:50.589Z,34.30
2023-12-01T00:38:54.154Z,32.50
2023-12-01T00:54:09.771Z,24.43
2023-12-01T01:40:58.064Z,15.87
2023-12-01T01:56:20.883Z,14.00
2023-12-01T02:11:35.252Z,15.03
2023-12-01T03:14:01.843Z,11.40
2023-12-01T03:29:14.138Z,13.17
2023-12-01T04:00:20.865Z,6.63
2023-12-01T04:46:02.481Z,6.93
2023-12-01T05:01:07.591Z,11.47
2023-12-01T05:16:12.192Z,7.87
2023-12-01T05:31:20.591Z,7.73
2023-12-01T05:46:29.211Z,11.30
2023-12-01T06:01:36.284Z,10.83
2023-12-01T06:32:37.228Z,12.57
2023-12-01T06:47:42.845Z,11.00
2023-12-01T07:02:47.626Z,11.40
2023-12-01T07:17:55.925Z,6.93
2023-12-01T07:33:09.633Z,9.37
2023-12-01T07:48:21.668Z,14.87
2023-12-01T08:03:25.235Z,7.97
2023-12-01T08:18:29.434Z,8.43
2023-12-01T08:33:34.044Z,11.40
2023-12-01T08:48:37.918Z,8.93
2023-12-01T09:03:44.776Z,12.33
2023-12-01T09:18:48.432Z,8.87
2023-12-01T09:33:52.477Z,13.57
2023-12-01T09:48:59.667Z,14.80
2023-12-01T10:04:03.794Z,12.60
2023-12-01T10:19:19.726Z,8.97
2023-12-01T10:34:23.378Z,8.63
2023-12-01T10:49:26.772Z,6.07
2023-12-01T11:04:34.756Z,9.53
2023-12-01T11:19:40.251Z,4.77
2023-12-01T11:35:07.777Z,5.50
2023-12-01T11:50:14.810Z,6.33
2023-12-01T12:05:18.511Z,14.63
2023-12-01T12:20:25.491Z,9.27
2023-12-01T12:35:29.558Z,12.33
2023-12-01T12:50:39.827Z,9.20
2023-12-01T13:05:48.062Z,9.73
2023-12-01T13:20:52.793Z,17.43
2023-12-01T13:36:00.214Z,9.97
2023-12-01T13:51:07.048Z,9.10
2023-12-01T14:22:19.638Z,5.33
2023-12-01T14:37:33.985Z,9.67
2023-12-01T14:52:39.295Z,15.43
2023-12-01T15:23:55.643Z,9.17
2023-12-01T15:39:06.339Z,12.07
2023-12-01T15:54:10.536Z,13.40
2023-12-01T16:26:07.867Z,13.97
2023-12-01T16:56:58.267Z,14.13
2023-12-01T17:12:04.475Z,21.17
2023-12-01T19:50:58.989Z,8.53
2023-12-01T20:39:54.081Z,9.77
2023-12-01T23:40:56.133Z,12.90
